Time;durP1;ratioP1;P1;durP2;ratioP2;P2;SDS_P1;SDS_P2;PMS_P1;PMS_P2;Temp;Humidity;BMP_temperature;BMP_pressure;BME280_temperature;BME280_humidity;BME280_pressure;Samples;Min_cycle;Max_cycle;Signal;HPM_P1;HPM_P2
2021/12/14 00:02:11;;;;;;;4.43;4.30;;;8.80;99.90;;;;;;4987551;28;20170;-80
2021/12/14 00:04:37;;;;;;;5.82;5.20;;;8.70;99.90;;;;;;4961734;28;20223;-79
2021/12/14 00:07:10;;;;;;;5.40;5.05;;;8.20;99.90;;;;;;4987502;28;20239;-80
2021/12/14 00:09:39;;;;;;;5.10;4.80;;;8.90;99.90;;;;;;4978829;28;20209;-80
2021/12/14 00:12:33;;;;;;;4.68;4.43;;;8.90;99.90;;;;;;4984979;28;20182;-81
2021/12/14 00:15:05;;;;;;;5.38;4.90;;;9.00;99.90;;;;;;4962567;28;20401;-80
2021/12/14 00:17:36;;;;;;;4.53;4.32;;;8.60;99.90;;;;;;4981326;28;20195;-80
2021/12/14 00:20:09;;;;;;;5.03;4.78;;;9.00;99.90;;;;;;4981698;28;20201;-80
2021/12/14 00:24:06;;;;;;;4.97;4.68;;;9.00;99.90;;;;;;4979338;28;20181;-80
2021/12/14 00:25:36;;;;;;;4.53;4.32;;;8.80;99.90;;;;;;4982261;28;20659;-80
2021/12/14 00:28:11;;;;;;;5.00;4.80;;;8.80;99.90;;;;;;4985216;28;20209;-79
2021/12/14 00:30:37;;;;;;;4.80;4.65;;;8.90;99.90;;;;;;4955549;28;20200;-79
2021/12/14 00:33:07;;;;;;;5.03;4.72;;;8.90;99.90;;;;;;4987019;28;20193;-80
2021/12/14 00:35:33;;;;;;;4.18;4.07;;;8.80;99.90;;;;;;4978308;28;20666;-80
2021/12/14 00:38:03;;;;;;;5.33;4.90;;;8.80;99.90;;;;;;4969198;28;20244;-81
2021/12/14 00:40:33;;;;;;;4.80;4.60;;;8.90;99.90;;;;;;4982199;28;20440;-80
2021/12/14 00:43:00;;;;;;;4.78;4.18;;;8.00;99.90;;;;;;4967645;28;20569;-79
2021/12/14 00:45:30;;;;;;;4.40;4.20;;;8.90;99.90;;;;;;4980908;28;20239;-79
2021/12/14 00:47:56;;;;;;;4.20;4.10;;;8.80;99.90;;;;;;4985878;28;20268;-79
2021/12/14 00:50:26;;;;;;;4.57;4.28;;;8.90;99.90;;;;;;4981921;28;20185;-79
2021/12/14 00:52:51;;;;;;;4.10;4.00;;;8.90;99.90;;;;;;4968680;28;20953;-78
2021/12/14 00:55:25;;;;;;;4.60;4.40;;;8.80;99.90;;;;;;4967134;28;20228;-79
2021/12/14 00:57:52;;;;;;;4.00;3.80;;;8.70;99.90;;;;;;4981296;28;20181;-79
2021/12/14 01:00:21;;;;;;;4.70;4.50;;;8.70;99.90;;;;;;4973827;28;20667;-80
2021/12/14 01:02:48;;;;;;;4.60;4.43;;;8.70;99.90;;;;;;4986186;28;20192;-80
2021/12/14 01:05:23;;;;;;;4.60;4.40;;;8.80;99.90;;;;;;4958584;28;20236;-80
2021/12/14 01:07:49;;;;;;;5.18;4.78;;;9.30;99.90;;;;;;4966142;28;20519;-80
2021/12/14 01:10:22;;;;;;;5.03;4.57;;;8.80;99.90;;;;;;4978075;28;20221;-79
2021/12/14 01:12:52;;;;;;;4.80;4.60;;;8.90;99.90;;;;;;4981041;28;20450;-80
2021/12/14 01:15:42;;;;;;;4.03;3.92;;;9.10;99.90;;;;;;4964828;28;20498;-80
2021/12/14 01:18:27;;;;;;;5.43;5.03;;;8.80;99.90;;;;;;4986734;28;20193;-81
2021/12/14 01:20:59;;;;;;;4.22;4.13;;;10.30;99.90;;;;;;4978214;28;20193;-81
2021/12/14 01:23:30;;;;;;;4.57;4.45;;;8.80;99.90;;;;;;4979735;28;20190;-80
2021/12/14 01:26:02;;;;;;;4.40;4.20;;;8.80;99.90;;;;;;4984091;28;20220;-80
2021/12/14 01:28:30;;;;;;;4.65;4.45;;;8.70;99.90;;;;;;4967616;28;20292;-80
2021/12/14 01:31:19;;;;;;;4.50;4.30;;;8.80;99.90;;;;;;4977131;28;20204;-81
2021/12/14 01:33:53;;;;;;;4.47;4.28;;;8.40;99.90;;;;;;4968457;28;20189;-81
2021/12/14 01:36:27;;;;;;;4.60;4.40;;;8.80;99.90;;;;;;4964494;28;20261;-79
2021/12/14 01:41:56;;;;;;;3.83;3.72;;;8.90;99.90;;;;;;4990543;28;20677;-80
2021/12/14 01:44:24;;;;;;;4.45;4.05;;;8.60;99.90;;;;;;4969637;28;20628;-79
2021/12/14 01:46:56;;;;;;;4.95;4.75;;;8.30;99.90;;;;;;4980785;28;20615;-80
2021/12/14 01:49:24;;;;;;;4.72;4.45;;;8.70;99.90;;;;;;4983338;28;20224;-80
2021/12/14 01:51:53;;;;;;;5.22;4.97;;;8.60;99.90;;;;;;4981352;28;20200;-79
2021/12/14 01:54:24;;;;;;;4.60;4.40;;;8.60;99.90;;;;;;4978483;28;20280;-80
2021/12/14 01:56:51;;;;;;;4.28;4.18;;;8.40;99.90;;;;;;4972782;28;20169;-81
2021/12/14 01:59:23;;;;;;;4.50;4.10;;;8.80;99.90;;;;;;4960995;28;20193;-80
2021/12/14 02:02:09;;;;;;;4.85;4.55;;;8.40;99.90;;;;;;4965043;28;20244;-81
2021/12/14 02:04:39;;;;;;;4.63;4.22;;;8.80;99.90;;;;;;4984682;28;20272;-81
2021/12/14 02:07:06;;;;;;;4.70;4.40;;;9.00;99.90;;;;;;4984785;28;20213;-80
2021/12/14 02:09:34;;;;;;;4.55;4.45;;;8.90;99.90;;;;;;4987248;28;20221;-80
2021/12/14 02:12:08;;;;;;;4.72;4.50;;;9.60;99.90;;;;;;4974794;28;20547;-79
2021/12/14 02:14:34;;;;;;;4.95;4.60;;;8.70;99.90;;;;;;4981219;28;20278;-80
2021/12/14 02:17:02;;;;;;;4.73;4.53;;;8.70;99.90;;;;;;4963712;28;20335;-80
2021/12/14 02:19:29;;;;;;;6.13;5.63;;;8.80;99.90;;;;;;4987577;28;20453;-80
2021/12/14 02:21:56;;;;;;;5.10;4.80;;;8.70;99.90;;;;;;4987871;28;20181;-80
2021/12/14 02:24:26;;;;;;;5.10;4.80;;;8.70;99.90;;;;;;4979531;28;20185;-79
2021/12/14 02:26:52;;;;;;;5.00;4.70;;;8.40;99.90;;;;;;4989113;28;20252;-79
2021/12/14 02:29:30;;;;;;;5.53;5.13;;;8.70;99.90;;;;;;4980437;28;20212;-79
2021/12/14 02:32:10;;;;;;;5.95;5.35;;;8.80;99.90;;;;;;4977375;28;20609;-80
2021/12/14 02:34:44;;;;;;;5.40;5.10;;;8.80;99.90;;;;;;5002269;28;20524;-80
2021/12/14 02:37:11;;;;;;;5.68;5.38;;;8.70;99.90;;;;;;4989259;28;20184;-80
2021/12/14 02:42:09;;;;;;;4.75;4.53;;;8.30;99.90;;;;;;4989414;28;20232;-80
2021/12/14 02:44:35;;;;;;;5.80;5.50;;;8.60;99.90;;;;;;4969769;28;20194;-80
2021/12/14 02:47:06;;;;;;;6.03;5.50;;;8.60;99.90;;;;;;4989228;28;20291;-80
2021/12/14 02:49:34;;;;;;;5.70;5.30;;;8.50;99.90;;;;;;4978142;28;20460;-80
2021/12/14 02:52:10;;;;;;;11.90;5.82;;;9.60;99.90;;;;;;4965518;28;20189;-80
2021/12/14 02:54:44;;;;;;;5.32;5.03;;;8.50;99.90;;;;;;4972216;28;20184;-80
2021/12/14 02:57:20;;;;;;;5.55;5.15;;;8.50;99.90;;;;;;4974285;28;20185;-80
2021/12/14 02:59:48;;;;;;;7.72;5.82;;;8.20;99.90;;;;;;4984274;28;20205;-80
2021/12/14 03:02:18;;;;;;;5.13;4.82;;;8.40;99.90;;;;;;4971539;28;20217;-79
2021/12/14 03:04:52;;;;;;;6.78;6.10;;;8.40;99.90;;;;;;4981138;28;20197;-80
2021/12/14 03:07:22;;;;;;;6.30;5.90;;;8.40;99.90;;;;;;4988904;28;20633;-79
2021/12/14 03:12:27;;;;;;;7.35;6.70;;;8.30;99.90;;;;;;4985142;28;20193;-80
2021/12/14 03:15:00;;;;;;;6.07;5.68;;;8.20;99.90;;;;;;4981923;28;20279;-81
2021/12/14 03:17:26;;;;;;;7.43;4.78;;;8.20;99.90;;;;;;4986499;28;20183;-81
2021/12/14 03:23:20;;;;;;;5.47;5.18;;;8.30;99.90;;;;;;4983862;28;20203;-79
2021/12/14 03:25:50;;;;;;;5.35;4.95;;;8.30;99.90;;;;;;4968735;28;20212;-79
2021/12/14 03:28:19;;;;;;;5.93;5.47;;;8.40;99.90;;;;;;4987869;28;20231;-80
2021/12/14 03:30:47;;;;;;;6.65;6.25;;;8.40;99.90;;;;;;4969092;28;20213;-79
2021/12/14 03:33:27;;;;;;;6.35;5.85;;;8.00;99.90;;;;;;4988081;28;20253;-79
2021/12/14 03:36:10;;;;;;;5.88;5.47;;;8.20;99.90;;;;;;4986330;28;20341;-79
2021/12/14 03:38:41;;;;;;;6.05;5.53;;;8.30;99.90;;;;;;4979512;28;20208;-80
2021/12/14 03:41:12;;;;;;;5.55;5.20;;;8.40;99.90;;;;;;4975692;28;20483;-80
2021/12/14 03:43:43;;;;;;;6.70;6.13;;;8.40;99.90;;;;;;4967497;28;20248;-79
2021/12/14 03:46:09;;;;;;;5.97;5.63;;;9.00;99.90;;;;;;4984228;28;20221;-79
2021/12/14 03:48:39;;;;;;;7.43;6.93;;;8.50;99.90;;;;;;4959490;28;20717;-80
2021/12/14 03:51:05;;;;;;;6.63;5.93;;;9.10;99.90;;;;;;4986014;28;20209;-80
2021/12/14 03:53:31;;;;;;;7.45;6.50;;;8.50;99.90;;;;;;4964495;28;20607;-80
2021/12/14 03:56:03;;;;;;;7.33;6.80;;;8.50;99.90;;;;;;4980089;28;20209;-79
2021/12/14 03:58:35;;;;;;;6.18;5.72;;;8.50;99.90;;;;;;4985941;28;20185;-80
2021/12/14 04:01:08;;;;;;;6.63;5.93;;;8.50;99.90;;;;;;4985713;28;20209;-79
2021/12/14 04:03:35;;;;;;;6.45;5.95;;;9.00;99.90;;;;;;4982085;28;20239;-79
2021/12/14 04:06:02;;;;;;;6.45;5.93;;;8.60;99.90;;;;;;4986527;28;20216;-79
2021/12/14 04:08:28;;;;;;;5.45;5.05;;;8.60;99.90;;;;;;4987661;28;20583;-78
2021/12/14 04:10:56;;;;;;;9.30;8.50;;;8.60;99.90;;;;;;4993342;28;20197;-81
2021/12/14 04:13:26;;;;;;;12.00;9.43;;;8.50;99.90;;;;;;4989684;28;20255;-79
2021/12/14 04:15:54;;;;;;;13.13;9.93;;;8.40;99.90;;;;;;4988866;28;20711;-79
2021/12/14 04:18:19;;;;;;;9.75;8.75;;;8.60;99.90;;;;;;4977441;28;20538;-79
2021/12/14 04:20:46;;;;;;;14.40;8.67;;;8.30;99.90;;;;;;4984868;28;20212;-79
2021/12/14 04:23:15;;;;;;;12.88;9.00;;;8.30;99.90;;;;;;4987097;28;20276;-80
2021/12/14 04:25:42;;;;;;;11.02;8.68;;;8.60;99.90;;;;;;4982786;28;20220;-80
2021/12/14 04:28:10;;;;;;;11.82;9.55;;;8.40;99.90;;;;;;4986079;28;20213;-80
2021/12/14 04:30:36;;;;;;;16.17;9.98;;;8.30;99.90;;;;;;4985070;28;20200;-79
2021/12/14 04:33:05;;;;;;;22.13;11.93;;;7.60;99.90;;;;;;4968989;28;20259;-79
2021/12/14 04:35:37;;;;;;;16.80;11.35;;;8.10;99.90;;;;;;4977328;28;20224;-79
2021/12/14 04:38:11;;;;;;;15.52;10.68;;;8.00;99.90;;;;;;4984919;28;20189;-80
2021/12/14 04:51:57;;;;;;;20.05;12.45;;;8.20;99.90;;;;;;4984973;28;20751;-79
2021/12/14 04:52:00;;;;;;;16.20;10.95;;;7.90;99.90;;;;;;4978478;28;20192;-79
2021/12/14 04:54:42;;;;;;;19.35;12.77;;;7.90;99.90;;;;;;4981280;28;20267;-79
2021/12/14 04:57:37;;;;;;;15.80;10.10;;;7.70;99.90;;;;;;4984615;28;20730;-78
2021/12/14 05:00:24;;;;;;;21.05;11.57;;;8.00;99.90;;;;;;4966937;28;20455;-79
2021/12/14 05:02:50;;;;;;;27.17;16.92;;;9.00;99.90;;;;;;4981164;28;20201;-80
2021/12/14 05:05:20;;;;;;;20.35;12.85;;;8.00;99.90;;;;;;4957251;28;20249;-79
2021/12/14 05:11:05;;;;;;;21.02;13.20;;;7.90;99.90;;;;;;4945516;28;20423;-81
2021/12/14 05:13:34;;;;;;;22.45;13.50;;;8.00;99.90;;;;;;4963135;28;20265;-80
2021/12/14 05:16:00;;;;;;;23.55;12.95;;;7.80;99.90;;;;;;4981075;28;20215;-80
2021/12/14 05:18:26;;;;;;;20.40;12.93;;;7.90;99.90;;;;;;4986429;28;20661;-81
2021/12/14 05:20:52;;;;;;;33.55;14.13;;;7.90;99.90;;;;;;4979742;28;20888;-81
2021/12/14 05:23:30;;;;;;;20.77;13.20;;;7.80;99.90;;;;;;4968697;28;20280;-80
2021/12/14 05:25:57;;;;;;;24.00;14.45;;;8.00;99.90;;;;;;4980054;28;20213;-81
2021/12/14 05:28:24;;;;;;;23.35;14.07;;;7.90;99.90;;;;;;4985782;28;20208;-81
2021/12/14 05:30:54;;;;;;;26.73;14.63;;;9.10;99.90;;;;;;4974538;28;20689;-80
2021/12/14 05:33:30;;;;;;;21.23;12.85;;;7.40;99.90;;;;;;4986426;28;20185;-80
2021/12/14 05:35:59;;;;;;;22.80;13.80;;;6.90;99.90;;;;;;4983527;28;20693;-80
2021/12/14 05:44:19;;;;;;;19.50;12.48;;;8.50;99.90;;;;;;4985279;28;20188;-79
2021/12/14 05:46:50;;;;;;;22.73;14.65;;;7.60;99.90;;;;;;4973996;28;20216;-79
2021/12/14 05:49:20;;;;;;;23.17;13.07;;;8.40;99.90;;;;;;4963958;28;20236;-80
2021/12/14 05:51:48;;;;;;;27.10;13.43;;;7.80;99.90;;;;;;4984416;28;20307;-78
2021/12/14 05:54:36;;;;;;;30.48;15.10;;;7.90;99.90;;;;;;4984034;28;20198;-81
2021/12/14 05:57:05;;;;;;;23.52;14.18;;;7.90;99.90;;;;;;4968274;28;20247;-81
2021/12/14 05:59:33;;;;;;;19.75;12.88;;;7.90;99.90;;;;;;4979900;28;20451;-82
2021/12/14 06:02:00;;;;;;;18.92;12.75;;;8.10;99.90;;;;;;4985845;28;20185;-81
2021/12/14 06:04:32;;;;;;;22.40;13.50;;;7.80;99.90;;;;;;4983913;28;20240;-80
2021/12/14 06:06:58;;;;;;;24.88;13.30;;;8.00;99.90;;;;;;4984543;28;20304;-79
2021/12/14 06:09:30;;;;;;;20.57;13.40;;;8.00;99.90;;;;;;4978876;28;20768;-81
2021/12/14 06:12:04;;;;;;;22.10;15.93;;;8.00;99.90;;;;;;4967177;28;20511;-81
2021/12/14 06:14:31;;;;;;;21.52;14.90;;;7.90;99.90;;;;;;4977189;28;20197;-81
2021/12/14 06:17:04;;;;;;;20.35;12.90;;;7.90;99.90;;;;;;4983558;28;20184;-81
2021/12/14 06:19:37;;;;;;;25.13;16.05;;;8.00;99.90;;;;;;4972387;28;20190;-81
2021/12/14 06:22:07;;;;;;;23.00;13.57;;;7.90;99.90;;;;;;4633220;28;10000253;-81
2021/12/14 06:24:35;;;;;;;21.55;14.63;;;7.80;99.90;;;;;;4982424;28;20623;-81
2021/12/14 06:27:04;;;;;;;26.70;15.68;;;7.80;99.90;;;;;;4992740;28;20567;-81
2021/12/14 06:29:35;;;;;;;26.33;16.27;;;7.90;99.90;;;;;;4962974;28;20202;-81
2021/12/14 06:32:09;;;;;;;19.27;12.73;;;8.00;99.90;;;;;;4986141;28;20671;-80
2021/12/14 06:34:42;;;;;;;18.70;13.57;;;8.00;99.90;;;;;;4984549;28;20185;-81
2021/12/14 06:37:41;;;;;;;20.30;13.75;;;8.10;99.90;;;;;;4986201;28;20205;-79
2021/12/14 06:40:13;;;;;;;14.77;10.00;;;8.00;99.90;;;;;;4985737;28;20212;-80
2021/12/14 06:42:53;;;;;;;19.55;14.15;;;7.70;99.90;;;;;;4990968;28;20205;-79
2021/12/14 06:45:24;;;;;;;23.55;14.32;;;8.10;99.90;;;;;;4981129;28;21106;-82
2021/12/14 06:47:54;;;;;;;20.85;13.75;;;8.00;99.90;;;;;;4987730;28;20196;-80
2021/12/14 06:50:27;;;;;;;19.83;12.98;;;8.00;99.90;;;;;;4984977;28;20205;-80
2021/12/14 06:53:06;;;;;;;19.00;13.15;;;8.20;99.90;;;;;;4977842;28;20205;-81
2021/12/14 06:55:33;;;;;;;17.98;12.88;;;8.20;99.90;;;;;;4995084;28;20184;-81
2021/12/14 06:58:11;;;;;;;20.65;14.77;;;8.10;99.90;;;;;;4975432;28;20304;-82
2021/12/14 07:00:40;;;;;;;18.00;13.30;;;8.00;99.90;;;;;;4963900;28;20260;-77
2021/12/14 07:03:06;;;;;;;24.38;15.15;;;7.50;99.90;;;;;;4984771;28;20603;-80
2021/12/14 07:05:32;;;;;;;25.00;14.73;;;8.10;99.90;;;;;;4966990;28;20255;-82
2021/12/14 07:08:06;;;;;;;19.77;13.77;;;8.00;99.90;;;;;;4981123;28;20467;-81
2021/12/14 07:10:37;;;;;;;20.65;13.20;;;8.00;99.90;;;;;;4988397;28;20779;-81
2021/12/14 07:13:18;;;;;;;17.38;12.18;;;10.50;99.90;;;;;;4987638;28;20283;-77
2021/12/14 07:15:47;;;;;;;19.98;13.38;;;9.30;99.90;;;;;;4987958;28;20729;-81
2021/12/14 07:18:13;;;;;;;18.00;11.18;;;8.10;99.90;;;;;;4981262;28;20231;-81
2021/12/14 07:20:49;;;;;;;16.10;12.00;;;8.10;99.90;;;;;;4984471;28;20208;-78
2021/12/14 07:23:28;;;;;;;16.92;12.73;;;8.10;99.90;;;;;;4986519;28;20227;-80
2021/12/14 07:26:04;;;;;;;17.47;12.40;;;8.00;99.90;;;;;;4966700;28;20221;-81
2021/12/14 07:28:40;;;;;;;19.80;12.50;;;8.10;99.90;;;;;;4984222;28;20433;-82
2021/12/14 07:31:25;;;;;;;23.60;13.30;;;8.20;99.90;;;;;;4967338;28;20189;-81
2021/12/14 07:34:00;;;;;;;16.92;12.20;;;7.80;99.90;;;;;;4989197;28;20208;-81
2021/12/14 07:36:27;;;;;;;20.33;13.88;;;9.00;99.90;;;;;;5001672;28;20683;-81
2021/12/14 07:39:03;;;;;;;22.63;14.45;;;8.10;99.90;;;;;;4961041;28;20204;-83
2021/12/14 07:41:35;;;;;;;21.48;15.32;;;8.10;99.90;;;;;;4983712;28;20275;-80
2021/12/14 07:44:08;;;;;;;21.27;13.98;;;8.00;99.90;;;;;;4977835;28;20199;-81
2021/12/14 07:46:48;;;;;;;18.65;12.60;;;8.00;99.90;;;;;;4974070;28;20679;-81
2021/12/14 07:49:35;;;;;;;18.33;13.43;;;8.10;99.90;;;;;;4958703;28;20729;-80
2021/12/14 07:52:22;;;;;;;17.25;11.73;;;8.10;99.90;;;;;;4981276;28;20418;-80
2021/12/14 07:54:55;;;;;;;19.00;12.73;;;8.10;99.90;;;;;;4966615;28;20185;-82
2021/12/14 07:57:31;;;;;;;15.35;10.80;;;8.00;99.90;;;;;;4964992;28;20200;-82
2021/12/14 08:00:22;;;;;;;18.00;12.90;;;8.20;99.90;;;;;;4966556;28;20184;-82
2021/12/14 08:02:51;;;;;;;19.25;12.77;;;8.20;99.90;;;;;;4971321;28;20697;-81
2021/12/14 08:05:22;;;;;;;22.13;14.63;;;8.20;99.90;;;;;;4986773;28;20244;-83
2021/12/14 08:08:13;;;;;;;20.25;13.35;;;8.00;99.90;;;;;;4986296;28;20177;-83
2021/12/14 08:11:29;;;;;;;23.13;15.37;;;8.00;99.90;;;;;;4618190;28;9999811;-76
2021/12/14 08:14:12;;;;;;;22.95;13.25;;;8.10;99.90;;;;;;4982085;28;20734;-82
2021/12/14 08:17:05;;;;;;;16.95;13.60;;;8.50;99.90;;;;;;4968178;28;20208;-84
2021/12/14 08:19:38;;;;;;;17.88;11.88;;;7.80;99.90;;;;;;4978012;28;20177;-82
2021/12/14 08:22:32;;;;;;;15.33;10.20;;;8.00;99.90;;;;;;4994395;28;20232;-82
2021/12/14 08:25:32;;;;;;;18.73;12.60;;;8.30;99.90;;;;;;4991219;28;20417;-81
2021/12/14 08:28:02;;;;;;;20.50;13.02;;;8.20;99.90;;;;;;5007524;28;20196;-83
2021/12/14 08:30:35;;;;;;;20.08;13.43;;;7.00;99.90;;;;;;4972110;28;20232;-83
2021/12/14 08:33:04;;;;;;;18.70;12.55;;;11.30;99.90;;;;;;4994640;28;20165;-84
2021/12/14 08:35:30;;;;;;;19.27;12.35;;;8.50;99.90;;;;;;4988134;28;20185;-78
2021/12/14 08:38:08;;;;;;;19.83;15.43;;;8.50;99.90;;;;;;5004193;28;20204;-81
2021/12/14 08:40:46;;;;;;;22.55;14.75;;;9.30;99.90;;;;;;5004343;28;20718;-80
2021/12/14 08:43:35;;;;;;;20.48;13.25;;;7.50;99.90;;;;;;5002213;28;20219;-84
2021/12/14 08:46:41;;;;;;;17.13;12.45;;;7.50;99.90;;;;;;5003645;28;20209;-81
2021/12/14 08:49:33;;;;;;;17.42;12.63;;;11.10;99.90;;;;;;4963728;28;20788;-88
2021/12/14 08:52:13;;;;;;;18.33;13.63;;;10.00;99.90;;;;;;4980592;28;20185;-85
2021/12/14 08:54:47;;;;;;;16.48;12.50;;;9.10;99.90;;;;;;4970607;28;20212;-86
2021/12/14 08:57:19;;;;;;;16.95;12.35;;;8.50;99.90;;;;;;4960339;28;20579;-85
2021/12/14 08:59:49;;;;;;;19.83;14.15;;;8.40;99.90;;;;;;4981554;28;20220;-81
2021/12/14 09:02:16;;;;;;;21.30;12.75;;;6.10;99.90;;;;;;4979684;28;20173;-82
2021/12/14 09:04:51;;;;;;;19.35;12.95;;;9.20;99.90;;;;;;4977795;28;20559;-80
2021/12/14 09:07:23;;;;;;;15.85;12.10;;;8.30;99.90;;;;;;4979613;28;20204;-80
2021/12/14 09:09:52;;;;;;;17.45;13.38;;;8.40;99.90;;;;;;4959897;28;20223;-80
2021/12/14 09:12:35;;;;;;;18.27;12.77;;;7.80;99.90;;;;;;4982417;28;20174;-81
2021/12/14 09:15:16;;;;;;;17.52;12.75;;;7.20;99.90;;;;;;4980102;28;20203;-80
2021/12/14 09:17:42;;;;;;;18.40;11.15;;;8.50;99.90;;;;;;4992874;28;20267;-81
2021/12/14 09:20:19;;;;;;;18.93;14.07;;;8.50;99.90;;;;;;4983060;28;20365;-80
2021/12/14 09:23:37;;;;;;;21.70;12.90;;;8.60;99.90;;;;;;4979528;28;20473;-81
2021/12/14 09:26:08;;;;;;;17.35;12.98;;;8.40;99.90;;;;;;4990724;28;20421;-82
2021/12/14 09:28:35;;;;;;;18.92;13.88;;;8.00;99.90;;;;;;4982408;28;20212;-80
2021/12/14 09:31:05;;;;;;;19.27;14.13;;;9.10;99.90;;;;;;4958147;28;20897;-81
2021/12/14 09:33:35;;;;;;;18.67;13.13;;;8.50;99.90;;;;;;4972486;28;20232;-80
2021/12/14 09:36:00;;;;;;;19.63;13.35;;;8.40;99.90;;;;;;4976794;28;20177;-77
2021/12/14 09:38:33;;;;;;;20.83;14.40;;;8.60;99.90;;;;;;4978548;28;20510;-78
2021/12/14 09:41:05;;;;;;;20.35;15.32;;;8.10;99.90;;;;;;4985348;28;20657;-80
2021/12/14 09:43:32;;;;;;;17.27;14.00;;;8.70;99.90;;;;;;4979962;28;20212;-80
2021/12/14 09:45:59;;;;;;;15.20;12.60;;;8.70;99.90;;;;;;4617916;28;9999976;-80
2021/12/14 09:48:28;;;;;;;20.08;13.10;;;8.70;99.90;;;;;;4978296;28;20214;-81
2021/12/14 09:50:56;;;;;;;18.93;13.03;;;8.60;99.90;;;;;;4993452;28;20232;-81
2021/12/14 09:53:33;;;;;;;20.65;14.85;;;7.80;99.90;;;;;;4983947;28;20490;-83
2021/12/14 09:55:59;;;;;;;18.55;14.63;;;8.70;99.90;;;;;;4976148;28;20205;-75
2021/12/14 09:58:30;;;;;;;19.20;13.57;;;8.50;99.90;;;;;;4991261;28;20195;-82
2021/12/14 10:01:13;;;;;;;20.65;15.90;;;8.60;99.90;;;;;;4994958;28;20207;-83
2021/12/14 10:03:46;;;;;;;20.70;14.65;;;8.60;99.90;;;;;;4997415;28;20604;-83
2021/12/14 10:06:16;;;;;;;18.77;15.10;;;8.40;99.90;;;;;;4990077;28;20386;-83
2021/12/14 10:08:49;;;;;;;18.20;13.13;;;8.10;99.90;;;;;;4983562;28;20270;-81
2021/12/14 10:11:35;;;;;;;20.50;14.50;;;8.80;99.90;;;;;;4987781;28;20153;-81
2021/12/14 10:14:11;;;;;;;23.40;15.57;;;8.80;99.90;;;;;;4661929;28;9999970;-83
2021/12/14 10:16:37;;;;;;;18.88;14.00;;;8.80;99.90;;;;;;4998406;28;20176;-82
2021/12/14 10:19:08;;;;;;;21.77;14.95;;;8.80;99.90;;;;;;5000541;28;20200;-85
2021/12/14 10:21:40;;;;;;;23.52;13.85;;;8.80;99.90;;;;;;4981277;28;20162;-84
2021/12/14 10:24:08;;;;;;;19.75;14.10;;;9.00;99.90;;;;;;4981542;28;20735;-81
2021/12/14 10:26:38;;;;;;;20.92;14.60;;;8.70;99.90;;;;;;4960381;28;20639;-81
2021/12/14 10:29:04;;;;;;;20.75;15.73;;;8.80;99.90;;;;;;4991609;28;20709;-82
2021/12/14 10:31:53;;;;;;;21.00;15.50;;;8.30;99.90;;;;;;4992644;28;20173;-77
2021/12/14 10:34:24;;;;;;;25.48;16.73;;;8.70;99.90;;;;;;4995535;28;20181;-82
2021/12/14 10:37:01;;;;;;;21.88;15.32;;;8.50;99.90;;;;;;4975686;28;20284;-82
2021/12/14 10:44:55;;;;;;;22.92;13.98;;;9.00;99.90;;;;;;4999266;28;20777;-84
2021/12/14 10:47:23;;;;;;;18.95;14.77;;;9.00;99.90;;;;;;5005108;28;20220;-83
2021/12/14 10:49:51;;;;;;;24.23;16.13;;;9.00;99.90;;;;;;4632327;28;10000352;-82
2021/12/14 10:52:20;;;;;;;22.95;15.15;;;10.10;99.90;;;;;;4998261;28;20634;-83
2021/12/14 10:54:51;;;;;;;19.48;14.27;;;9.50;99.90;;;;;;4963777;28;20211;-84
2021/12/14 10:57:21;;;;;;;23.92;15.88;;;8.80;99.90;;;;;;4981736;28;20188;-84
2021/12/14 10:59:50;;;;;;;25.30;16.55;;;9.10;99.90;;;;;;4956773;28;20188;-83
2021/12/14 11:02:19;;;;;;;23.60;16.05;;;9.00;99.90;;;;;;4968143;28;20541;-82
2021/12/14 11:04:54;;;;;;;21.27;15.98;;;9.00;99.90;;;;;;4950628;28;20741;-80
2021/12/14 11:07:28;;;;;;;25.35;16.83;;;9.20;99.90;;;;;;4986833;28;20213;-82
2021/12/14 11:10:09;;;;;;;23.65;17.15;;;9.00;99.90;;;;;;4971375;28;20438;-82
2021/12/14 11:12:39;;;;;;;24.35;16.27;;;9.00;99.90;;;;;;4966513;28;20273;-82
2021/12/14 11:15:17;;;;;;;19.92;14.98;;;11.20;99.90;;;;;;4984091;28;20273;-81
2021/12/14 11:20:37;;;;;;;22.67;15.27;;;9.10;99.90;;;;;;4994450;28;20279;-81
2021/12/14 11:23:32;;;;;;;20.92;14.85;;;9.10;99.90;;;;;;4991838;28;20259;-81
2021/12/14 11:26:11;;;;;;;24.47;16.23;;;9.20;99.90;;;;;;4963854;28;20213;-79
2021/12/14 11:28:45;;;;;;;22.67;16.30;;;9.20;99.90;;;;;;4977975;28;20582;-81
2021/12/14 11:31:23;;;;;;;23.10;18.10;;;9.10;99.90;;;;;;4964884;28;20597;-81
2021/12/14 11:34:08;;;;;;;19.80;15.60;;;9.10;99.90;;;;;;4989631;28;20208;-80
2021/12/14 11:37:02;;;;;;;17.45;14.40;;;9.20;99.90;;;;;;4971832;28;20183;-77
2021/12/14 11:39:34;;;;;;;20.80;15.38;;;9.30;99.90;;;;;;4968773;28;20264;-80
2021/12/14 11:42:12;;;;;;;23.23;15.88;;;9.30;99.90;;;;;;4960792;28;20261;-80
2021/12/14 11:45:08;;;;;;;20.25;14.32;;;9.70;99.90;;;;;;4994981;28;20658;-77
2021/12/14 11:50:12;;;;;;;18.63;14.20;;;9.30;99.90;;;;;;4987335;28;20221;-80
2021/12/14 11:53:11;;;;;;;23.60;15.82;;;9.80;99.90;;;;;;4970635;28;20177;-80
2021/12/14 11:55:57;;;;;;;23.13;16.33;;;9.20;99.90;;;;;;4972413;28;20228;-81
2021/12/14 11:58:33;;;;;;;21.38;16.10;;;9.30;99.90;;;;;;4970891;28;20265;-78
2021/12/14 12:01:20;;;;;;;25.10;16.38;;;9.30;99.90;;;;;;4967199;28;20185;-78
2021/12/14 12:03:51;;;;;;;21.30;16.23;;;9.20;99.90;;;;;;4986736;28;20177;-80
2021/12/14 12:06:43;;;;;;;28.60;18.70;;;9.30;99.90;;;;;;4961441;28;20588;-82
2021/12/14 12:11:57;;;;;;;22.17;13.48;;;8.50;99.90;;;;;;4987079;28;20184;-84
2021/12/14 12:14:28;;;;;;;24.67;18.50;;;9.40;99.90;;;;;;4971213;28;20200;-85
2021/12/14 12:17:17;;;;;;;22.30;16.58;;;9.40;99.90;;;;;;4989297;28;20180;-83
2021/12/14 12:20:10;;;;;;;23.25;17.05;;;9.40;99.90;;;;;;4968276;28;20170;-80
2021/12/14 12:22:43;;;;;;;25.33;15.85;;;10.40;99.90;;;;;;4968714;28;20170;-84
2021/12/14 12:25:16;;;;;;;26.02;17.70;;;10.20;99.90;;;;;;4967278;28;20178;-84
2021/12/14 12:27:53;;;;;;;26.17;18.02;;;9.50;99.90;;;;;;4967835;28;20214;-75
2021/12/14 12:30:41;;;;;;;22.23;17.23;;;9.60;99.90;;;;;;4953471;28;20631;-81
2021/12/14 12:33:30;;;;;;;22.85;16.63;;;9.50;99.90;;;;;;4970902;28;20412;-83
2021/12/14 12:36:22;;;;;;;24.60;17.80;;;9.50;99.90;;;;;;4954632;28;20268;-83
2021/12/14 12:39:08;;;;;;;20.65;15.70;;;9.40;99.90;;;;;;4957184;28;20197;-79
2021/12/14 12:41:47;;;;;;;20.98;14.63;;;9.60;99.90;;;;;;4973798;28;20227;-81
2021/12/14 12:44:13;;;;;;;21.13;15.48;;;9.70;99.90;;;;;;4972192;28;20185;-80
2021/12/14 12:46:41;;;;;;;27.53;19.33;;;9.30;99.90;;;;;;4974475;28;20742;-80
2021/12/14 12:49:07;;;;;;;20.13;15.55;;;9.60;99.90;;;;;;4971999;28;20218;-80
2021/12/14 12:51:40;;;;;;;24.83;18.23;;;9.70;99.90;;;;;;4971283;28;20170;-81
2021/12/14 12:54:19;;;;;;;20.80;16.23;;;9.20;99.90;;;;;;4969165;28;20166;-81
2021/12/14 12:56:51;;;;;;;23.80;17.00;;;9.60;99.90;;;;;;4968318;28;20293;-82
2021/12/14 12:59:47;;;;;;;22.40;16.77;;;9.30;99.90;;;;;;4968905;28;20429;-82
2021/12/14 13:02:34;;;;;;;29.67;20.90;;;9.80;99.90;;;;;;4967646;28;20173;-81
2021/12/14 13:05:09;;;;;;;23.95;18.77;;;9.80;99.90;;;;;;4968396;28;20582;-80
2021/12/14 13:07:41;;;;;;;23.77;15.98;;;9.70;99.90;;;;;;4968419;28;20612;-84
2021/12/14 13:10:10;;;;;;;22.17;15.93;;;9.70;99.90;;;;;;4984687;28;20166;-81
2021/12/14 13:13:20;;;;;;;22.58;16.50;;;9.60;99.90;;;;;;5007081;28;20176;-81
2021/12/14 13:15:48;;;;;;;20.58;16.00;;;9.70;99.90;;;;;;5004161;28;20184;-80
2021/12/14 13:18:31;;;;;;;21.33;17.33;;;9.20;99.90;;;;;;4988249;28;20169;-80
2021/12/14 13:21:03;;;;;;;24.63;16.03;;;9.80;99.90;;;;;;4656591;28;10000268;-78
2021/12/14 13:23:52;;;;;;;24.33;17.50;;;9.80;99.90;;;;;;4984241;28;20209;-80
2021/12/14 13:26:34;;;;;;;22.15;16.80;;;10.40;99.90;;;;;;4984032;28;20217;-81
2021/12/14 13:29:31;;;;;;;26.15;18.23;;;10.60;99.90;;;;;;4983686;28;20177;-80
2021/12/14 13:32:04;;;;;;;23.08;15.98;;;10.50;99.90;;;;;;4966253;28;20392;-81
2021/12/14 13:34:38;;;;;;;23.55;15.95;;;9.80;99.90;;;;;;4967796;28;20168;-79
2021/12/14 13:37:06;;;;;;;22.50;16.90;;;9.80;99.90;;;;;;4987176;28;20193;-81
2021/12/14 13:39:33;;;;;;;31.45;19.55;;;9.70;99.90;;;;;;4969948;28;20173;-80
2021/12/14 13:41:58;;;;;;;21.65;16.48;;;9.80;99.90;;;;;;4987760;28;20258;-82
2021/12/14 13:44:29;;;;;;;19.77;15.90;;;9.80;99.90;;;;;;4988905;28;20668;-82
2021/12/14 13:46:58;;;;;;;23.25;16.77;;;10.00;99.90;;;;;;4988168;28;20205;-77
2021/12/14 13:49:25;;;;;;;22.42;17.35;;;10.20;99.90;;;;;;4988544;28;20296;-78
2021/12/14 13:52:21;;;;;;;20.30;16.45;;;9.60;99.90;;;;;;4982511;28;20240;-78
2021/12/14 13:55:06;;;;;;;21.20;16.08;;;9.90;99.90;;;;;;4980201;28;20189;-81
2021/12/14 13:57:32;;;;;;;23.05;15.13;;;10.00;99.90;;;;;;4986410;28;20169;-80
2021/12/14 13:59:59;;;;;;;21.67;16.02;;;10.20;99.90;;;;;;4985150;28;20268;-79
2021/12/14 14:02:25;;;;;;;18.42;13.30;;;9.40;99.90;;;;;;4987080;28;20181;-79